createdAt,value
2018-03-30T00:00:25.531Z,93.04
2018-03-30T00:01:04.517Z,92.76
2018-03-30T00:02:04.509Z,92.94
2018-03-30T00:03:04.501Z,93.04
2018-03-30T00:04:04.493Z,92.94
2018-03-30T00:05:04.487Z,92.66
2018-03-30T00:06:25.477Z,92.47
2018-03-30T00:07:04.471Z,92.19
2018-03-30T00:08:04.459Z,92.09
2018-03-30T00:09:04.452Z,92.00
2018-03-30T00:10:04.445Z,92.00
2018-03-30T00:11:04.436Z,91.90
2018-03-30T00:12:25.433Z,92.28
2018-03-30T00:13:04.418Z,92.38
2018-03-30T00:14:04.413Z,92.38
2018-03-30T00:15:04.404Z,92.38
2018-03-30T00:16:04.421Z,92.09
2018-03-30T00:17:04.391Z,92.57
2018-03-30T00:18:25.390Z,92.38
2018-03-30T00:19:04.374Z,92.85
2018-03-30T00:20:04.376Z,92.28
2018-03-30T00:21:04.360Z,92.38
2018-03-30T00:22:04.350Z,93.13
2018-03-30T00:23:04.341Z,92.19
2018-03-30T00:24:25.337Z,92.19
2018-03-30T00:25:04.334Z,92.00
2018-03-30T00:26:04.314Z,92.00
2018-03-30T00:27:04.314Z,92.00
2018-03-30T00:28:04.299Z,92.28
2018-03-30T00:29:04.292Z,92.47
2018-03-30T00:30:25.295Z,91.71
2018-03-30T00:31:04.284Z,92.09
2018-03-30T00:32:04.268Z,92.09
2018-03-30T00:33:04.365Z,92.19
2018-03-30T00:34:04.254Z,92.85
2018-03-30T00:35:04.245Z,92.94
2018-03-30T00:36:25.242Z,92.19
2018-03-30T00:37:04.231Z,93.04
2018-03-30T00:38:04.234Z,92.85
2018-03-30T00:39:04.222Z,92.00
2018-03-30T00:40:04.208Z,91.52
2018-03-30T00:41:04.196Z,91.43
2018-03-30T00:42:25.197Z,92.47
2018-03-30T00:43:04.186Z,92.28
2018-03-30T00:44:04.178Z,92.19
2018-03-30T00:45:04.168Z,92.85
2018-03-30T00:46:04.161Z,92.38
2018-03-30T00:47:04.156Z,92.57
2018-03-30T00:48:25.157Z,91.90
2018-03-30T00:49:04.138Z,92.00
2018-03-30T00:50:04.407Z,92.00
2018-03-30T00:51:04.119Z,92.00
2018-03-30T00:52:04.115Z,91.81
2018-03-30T00:53:04.103Z,91.71
2018-03-30T00:54:25.103Z,91.81
2018-03-30T00:55:04.086Z,91.81
2018-03-30T00:56:04.080Z,91.52
2018-03-30T00:57:04.072Z,91.81
2018-03-30T00:58:04.083Z,91.90
2018-03-30T00:59:04.057Z,91.52
2018-03-30T01:00:25.051Z,91.81
2018-03-30T01:01:04.052Z,91.71
2018-03-30T01:02:04.033Z,91.05
2018-03-30T01:03:04.024Z,91.81
2018-03-30T01:04:04.015Z,91.90
2018-03-30T01:05:04.005Z,91.71
2018-03-30T01:06:25.006Z,91.52
2018-03-30T01:07:03.997Z,92.00
2018-03-30T01:08:03.986Z,92.00
2018-03-30T01:09:03.972Z,92.00
2018-03-30T01:10:03.971Z,92.09
2018-03-30T01:11:03.992Z,92.38
2018-03-30T01:12:24.960Z,92.09
2018-03-30T01:13:03.941Z,91.52
2018-03-30T01:14:03.938Z,91.43
2018-03-30T01:15:03.929Z,91.43
2018-03-30T01:16:03.917Z,92.57
2018-03-30T01:17:03.911Z,91.52
2018-03-30T01:18:24.905Z,92.19
2018-03-30T01:19:03.893Z,92.00
2018-03-30T01:20:03.889Z,92.09
2018-03-30T01:21:03.875Z,91.71
2018-03-30T01:22:03.863Z,92.00
2018-03-30T01:23:03.861Z,91.90
2018-03-30T01:24:24.865Z,91.81
2018-03-30T01:25:03.849Z,91.90
2018-03-30T01:26:03.840Z,91.81
2018-03-30T01:27:03.843Z,92.09
2018-03-30T01:28:03.824Z,92.94
2018-03-30T01:29:03.816Z,92.09
2018-03-30T01:30:24.808Z,92.47
2018-03-30T01:31:03.842Z,92.38
2018-03-30T01:32:03.785Z,92.28
2018-03-30T01:33:03.780Z,93.04
2018-03-30T01:34:03.770Z,92.76
2018-03-30T01:35:03.762Z,92.19
2018-03-30T01:36:24.760Z,92.28
2018-03-30T01:37:03.747Z,92.00
2018-03-30T01:38:03.738Z,92.38
2018-03-30T01:39:03.732Z,92.00
2018-03-30T01:40:03.718Z,92.38
2018-03-30T01:41:03.716Z,92.19
2018-03-30T01:42:24.707Z,92.38
2018-03-30T01:43:03.698Z,92.19
2018-03-30T01:44:03.690Z,92.57
2018-03-30T01:45:03.678Z,92.00
2018-03-30T01:46:03.676Z,92.28
2018-03-30T01:47:03.659Z,92.00
2018-03-30T01:48:24.659Z,92.09
2018-03-30T01:49:03.646Z,92.28
2018-03-30T01:50:03.643Z,92.00
2018-03-30T01:51:03.629Z,92.09
2018-03-30T01:52:03.626Z,91.81
2018-03-30T01:53:03.611Z,91.43
2018-03-30T01:54:24.614Z,91.43
2018-03-30T01:55:03.602Z,91.52
2018-03-30T01:56:03.594Z,92.09
2018-03-30T01:57:03.585Z,92.19
2018-03-30T01:58:03.567Z,92.19
2018-03-30T01:59:03.596Z,92.00
2018-03-30T02:00:24.560Z,93.04
2018-03-30T02:01:03.546Z,93.13
2018-03-30T02:02:03.538Z,92.00
2018-03-30T02:03:03.531Z,92.19
2018-03-30T02:04:03.520Z,91.71
2018-03-30T02:05:03.518Z,91.62
2018-03-30T02:06:24.513Z,91.62
2018-03-30T02:07:03.499Z,91.76
2018-03-30T02:08:03.488Z,91.52
2018-03-30T02:09:03.483Z,91.67
2018-03-30T02:10:03.478Z,91.90
2018-03-30T02:11:03.465Z,92.43
2018-03-30T02:12:24.464Z,91.48
2018-03-30T02:13:03.457Z,91.48
2018-03-30T02:14:03.439Z,91.86
2018-03-30T02:15:03.430Z,91.76
2018-03-30T02:16:03.423Z,91.86
2018-03-30T02:17:03.418Z,91.95
2018-03-30T02:18:24.431Z,92.14
2018-03-30T02:19:03.396Z,91.95
2018-03-30T02:20:03.387Z,91.57
2018-03-30T02:21:03.380Z,91.48
2018-03-30T02:22:03.383Z,91.67
2018-03-30T02:23:03.372Z,92.05
2018-03-30T02:24:24.365Z,91.95
2018-03-30T02:25:03.349Z,92.43
2018-03-30T02:26:03.345Z,92.52
2018-03-30T02:27:03.332Z,91.67
2018-03-30T02:28:03.325Z,91.95
2018-03-30T02:29:03.314Z,91.86
2018-03-30T02:30:24.330Z,91.95
2018-03-30T02:31:03.298Z,91.86
2018-03-30T02:32:03.298Z,91.48
2018-03-30T02:33:03.276Z,91.86
2018-03-30T02:34:03.285Z,91.86
2018-03-30T02:35:03.266Z,91.48
2018-03-30T02:36:24.262Z,92.14
2018-03-30T02:37:03.248Z,91.95
2018-03-30T02:38:03.239Z,92.05
2018-03-30T02:39:03.235Z,91.76
2018-03-30T02:40:03.223Z,91.76
2018-03-30T02:41:03.218Z,91.48
2018-03-30T02:42:24.212Z,91.57
2018-03-30T02:43:03.200Z,91.29
2018-03-30T02:44:03.189Z,91.29
2018-03-30T02:45:03.200Z,91.10
2018-03-30T02:46:03.178Z,91.29
2018-03-30T02:47:03.164Z,91.48
2018-03-30T02:48:24.163Z,91.29
2018-03-30T02:49:03.156Z,91.19
2018-03-30T02:50:03.140Z,91.29
2018-03-30T02:51:03.129Z,91.29
2018-03-30T02:52:03.124Z,91.67
2018-03-30T02:53:03.116Z,91.76
2018-03-30T02:54:24.117Z,91.57
2018-03-30T02:55:03.102Z,91.00
2018-03-30T02:56:03.094Z,91.76
2018-03-30T02:57:03.082Z,91.86
2018-03-30T02:58:03.075Z,91.86
2018-03-30T02:59:03.067Z,91.29
2018-03-30T03:00:24.060Z,91.19
2018-03-30T03:01:03.048Z,91.86
2018-03-30T03:02:03.038Z,91.86
2018-03-30T03:03:03.033Z,91.86
2018-03-30T03:04:03.035Z,91.86
2018-03-30T03:05:03.014Z,91.38
2018-03-30T03:06:24.013Z,91.67
2018-03-30T03:07:03.003Z,91.95
2018-03-30T03:08:02.993Z,91.48
2018-03-30T03:09:02.985Z,91.67
2018-03-30T03:10:02.978Z,91.86
2018-03-30T03:11:02.968Z,91.95
2018-03-30T03:12:23.961Z,91.76
2018-03-30T03:13:02.950Z,91.86
2018-03-30T03:14:02.937Z,91.95
2018-03-30T03:15:02.937Z,91.95
2018-03-30T03:16:02.921Z,91.86
2018-03-30T03:17:02.927Z,91.86
2018-03-30T03:18:38.831Z,91.86
2018-03-30T03:19:02.907Z,91.38
2018-03-30T03:20:02.897Z,91.67
2018-03-30T03:21:02.875Z,91.86
2018-03-30T03:22:02.868Z,91.38
2018-03-30T03:23:02.858Z,91.95
2018-03-30T03:24:23.857Z,91.95
2018-03-30T03:25:02.841Z,91.76
2018-03-30T03:26:02.841Z,91.38
2018-03-30T03:27:02.827Z,91.86
2018-03-30T03:28:02.820Z,91.57
2018-03-30T03:29:02.809Z,91.00
2018-03-30T03:30:23.812Z,91.10
2018-03-30T03:31:02.790Z,90.91
2018-03-30T03:32:02.787Z,91.10
2018-03-30T03:33:02.774Z,91.38
2018-03-30T03:34:02.765Z,91.57
2018-03-30T03:35:02.754Z,91.67
2018-03-30T03:36:23.752Z,91.53
2018-03-30T03:37:02.739Z,91.95
2018-03-30T03:38:02.730Z,92.19
2018-03-30T03:39:02.726Z,92.14
2018-03-30T03:40:02.708Z,91.48
2018-03-30T03:41:02.703Z,91.48
2018-03-30T03:42:23.707Z,91.67
2018-03-30T03:43:02.685Z,91.57
2018-03-30T03:44:02.680Z,91.86
2018-03-30T03:45:02.670Z,91.81
2018-03-30T03:46:02.661Z,91.53
2018-03-30T03:47:02.653Z,91.62
2018-03-30T03:48:23.652Z,91.43
2018-03-30T03:49:02.636Z,91.72
2018-03-30T03:50:02.629Z,91.91
2018-03-30T03:51:02.617Z,91.81
2018-03-30T03:52:02.612Z,91.72
2018-03-30T03:53:02.595Z,92.47
2018-03-30T03:54:23.593Z,92.10
2018-03-30T03:55:02.580Z,92.00
2018-03-30T03:56:02.573Z,92.66
2018-03-30T03:57:02.559Z,92.19
2018-03-30T03:58:02.547Z,92.29
2018-03-30T03:59:02.546Z,92.57
2018-03-30T04:00:23.538Z,92.47
2018-03-30T04:01:02.527Z,92.85
2018-03-30T04:02:02.519Z,93.32
2018-03-30T04:03:02.504Z,93.42
2018-03-30T04:04:02.501Z,93.23
2018-03-30T04:05:02.487Z,93.32
2018-03-30T04:06:23.483Z,93.32
2018-03-30T04:07:02.468Z,93.23
2018-03-30T04:08:02.459Z,92.76
2018-03-30T04:09:02.450Z,92.29
2018-03-30T04:10:02.440Z,92.76
2018-03-30T04:11:02.437Z,92.47
2018-03-30T04:12:23.428Z,92.76
2018-03-30T04:13:02.409Z,92.76
2018-03-30T04:14:02.411Z,92.76
2018-03-30T04:15:02.406Z,92.76
2018-03-30T04:16:02.384Z,92.85
2018-03-30T04:17:02.371Z,92.38
2018-03-30T04:18:23.367Z,92.38
2018-03-30T04:19:02.373Z,92.66
2018-03-30T04:20:02.344Z,92.57
2018-03-30T04:21:02.337Z,92.47
2018-03-30T04:22:02.332Z,92.85
2018-03-30T04:23:02.317Z,93.32
2018-03-30T04:24:23.314Z,93.42
2018-03-30T04:25:02.300Z,93.32
2018-03-30T04:26:02.287Z,93.42
2018-03-30T04:27:02.280Z,93.32
2018-03-30T04:28:02.334Z,93.04
2018-03-30T04:29:02.262Z,93.23
2018-03-30T04:30:23.262Z,93.42
2018-03-30T04:31:02.245Z,93.23
2018-03-30T04:32:02.239Z,93.32
2018-03-30T04:33:02.220Z,93.42
2018-03-30T04:34:02.218Z,93.51
2018-03-30T04:35:02.204Z,92.66
2018-03-30T04:36:23.200Z,92.76
2018-03-30T04:37:02.184Z,93.04
2018-03-30T04:38:02.176Z,92.76
2018-03-30T04:39:02.163Z,92.66
2018-03-30T04:40:02.158Z,92.57
2018-03-30T04:41:02.148Z,93.04
2018-03-30T04:42:23.152Z,93.04
2018-03-30T04:43:02.135Z,92.47
2018-03-30T04:44:02.149Z,92.66
2018-03-30T04:45:02.118Z,92.47
2018-03-30T04:46:02.100Z,92.66
2018-03-30T04:47:02.095Z,92.76
2018-03-30T04:48:23.086Z,92.76
2018-03-30T04:49:02.068Z,92.47
2018-03-30T04:50:02.074Z,92.76
2018-03-30T04:51:02.051Z,92.76
2018-03-30T04:52:02.048Z,92.00
2018-03-30T04:53:02.046Z,92.19
2018-03-30T04:54:23.031Z,92.29
2018-03-30T04:55:02.016Z,92.38
2018-03-30T04:56:02.014Z,92.94
2018-03-30T04:57:02.004Z,91.81
2018-03-30T04:58:01.988Z,92.19
2018-03-30T04:59:02.012Z,91.43
2018-03-30T05:00:22.976Z,91.43
2018-03-30T05:01:01.976Z,91.81
2018-03-30T05:02:01.952Z,92.00
2018-03-30T05:03:01.939Z,91.62
2018-03-30T05:04:01.946Z,91.62
2018-03-30T05:05:01.927Z,91.62
2018-03-30T05:06:22.929Z,91.81
2018-03-30T05:07:01.907Z,92.00
2018-03-30T05:08:01.890Z,91.43
2018-03-30T05:09:01.885Z,92.38
2018-03-30T05:10:01.877Z,92.19
2018-03-30T05:11:01.872Z,92.10
2018-03-30T05:12:22.861Z,92.85
2018-03-30T05:13:01.851Z,92.00
2018-03-30T05:14:01.842Z,92.00
2018-03-30T05:15:01.829Z,92.10
2018-03-30T05:16:01.824Z,92.10
2018-03-30T05:17:01.818Z,92.94
2018-03-30T05:18:22.814Z,92.57
2018-03-30T05:19:01.794Z,92.66
2018-03-30T05:20:01.786Z,92.19
2018-03-30T05:21:01.769Z,92.38
2018-03-30T05:22:01.821Z,92.57
2018-03-30T05:23:01.759Z,92.29
2018-03-30T05:24:22.750Z,92.38
2018-03-30T05:25:01.735Z,92.47
2018-03-30T05:26:01.730Z,92.76
2018-03-30T05:27:01.719Z,92.10
2018-03-30T05:28:01.707Z,92.94
2018-03-30T05:29:01.702Z,92.00
2018-03-30T05:30:22.702Z,92.19
2018-03-30T05:31:01.681Z,91.91
2018-03-30T05:32:01.676Z,91.91
2018-03-30T05:33:01.656Z,92.00
2018-03-30T05:34:01.650Z,92.76
2018-03-30T05:35:01.643Z,93.04
2018-03-30T05:36:22.645Z,91.91
2018-03-30T05:37:01.642Z,91.81
2018-03-30T05:38:01.615Z,92.10
2018-03-30T05:39:01.610Z,92.10
2018-03-30T05:40:01.602Z,91.81
2018-03-30T05:41:01.589Z,91.62
2018-03-30T05:42:22.586Z,91.72
2018-03-30T05:43:01.573Z,91.62
2018-03-30T05:44:01.570Z,91.72
2018-03-30T05:45:01.554Z,91.62
2018-03-30T05:46:01.542Z,91.53
2018-03-30T05:47:01.533Z,91.05
2018-03-30T05:48:22.528Z,90.86
2018-03-30T05:49:01.508Z,91.05
2018-03-30T05:50:01.510Z,91.43
2018-03-30T05:51:01.542Z,91.05
2018-03-30T05:52:01.490Z,90.67
2018-03-30T05:53:01.491Z,90.67
2018-03-30T05:54:22.475Z,90.77
2018-03-30T05:55:01.458Z,90.86
2018-03-30T05:56:01.449Z,90.77
2018-03-30T05:57:01.467Z,91.53
2018-03-30T05:58:01.431Z,90.96
2018-03-30T05:59:01.419Z,90.86
2018-03-30T06:00:22.420Z,91.05
2018-03-30T06:01:01.403Z,91.24
2018-03-30T06:02:01.394Z,91.81
2018-03-30T06:03:01.389Z,90.86
2018-03-30T06:04:01.374Z,90.86
2018-03-30T06:05:01.364Z,91.29
2018-03-30T06:06:22.362Z,91.00
2018-03-30T06:07:01.347Z,90.72
2018-03-30T06:08:01.337Z,90.34
2018-03-30T06:09:01.334Z,91.00
2018-03-30T06:10:01.318Z,90.25
2018-03-30T06:11:01.320Z,90.72
2018-03-30T06:12:22.307Z,90.53
2018-03-30T06:13:01.291Z,90.25
2018-03-30T06:14:01.284Z,90.63
2018-03-30T06:15:01.277Z,90.34
2018-03-30T06:16:01.265Z,90.25
2018-03-30T06:17:01.256Z,89.20
2018-03-30T06:18:22.253Z,90.06
2018-03-30T06:19:01.267Z,89.68
2018-03-30T06:20:01.235Z,90.44
2018-03-30T06:21:01.337Z,90.44
2018-03-30T06:22:01.210Z,90.25
2018-03-30T06:23:01.203Z,89.68
2018-03-30T06:24:22.223Z,89.68
2018-03-30T06:25:01.200Z,89.68
2018-03-30T06:26:01.180Z,89.49
2018-03-30T06:27:01.169Z,89.68
2018-03-30T06:28:01.167Z,89.58
2018-03-30T06:29:01.183Z,89.68
2018-03-30T06:30:22.149Z,89.58
2018-03-30T06:31:01.140Z,89.20
2018-03-30T06:32:01.123Z,89.77
2018-03-30T06:33:01.115Z,89.68
2018-03-30T06:34:01.118Z,89.58
2018-03-30T06:35:01.104Z,89.39
2018-03-30T06:36:22.095Z,89.58
2018-03-30T06:37:01.090Z,89.01
2018-03-30T06:38:01.077Z,89.30
2018-03-30T06:39:01.069Z,89.49
2018-03-30T06:40:01.057Z,89.49
2018-03-30T06:41:01.048Z,89.11
2018-03-30T06:42:22.044Z,89.58
2018-03-30T06:43:01.044Z,89.39
2018-03-30T06:44:01.032Z,89.39
2018-03-30T06:45:01.015Z,89.11
2018-03-30T06:46:01.005Z,89.30
2018-03-30T06:47:01.004Z,88.82
2018-03-30T06:48:22.036Z,88.26
2018-03-30T06:49:00.978Z,88.73
2018-03-30T06:50:00.976Z,89.30
2018-03-30T06:51:00.978Z,88.73
2018-03-30T06:52:00.959Z,88.64
2018-03-30T06:53:00.949Z,88.64
2018-03-30T06:54:21.945Z,88.82
2018-03-30T06:55:00.938Z,89.01
2018-03-30T06:56:00.924Z,88.82
2018-03-30T06:57:00.908Z,88.64
2018-03-30T06:58:00.910Z,88.35
2018-03-30T06:59:00.894Z,89.11
2018-03-30T07:00:21.890Z,88.64
2018-03-30T07:01:00.879Z,88.49
2018-03-30T07:02:00.874Z,88.87
2018-03-30T07:03:00.865Z,88.87
2018-03-30T07:04:00.856Z,88.49
2018-03-30T07:05:00.848Z,88.11
2018-03-30T07:06:21.844Z,88.30
2018-03-30T07:07:00.828Z,88.02
2018-03-30T07:08:00.821Z,88.21
2018-03-30T07:09:00.816Z,88.11
2018-03-30T07:10:00.801Z,87.16
2018-03-30T07:11:00.799Z,87.16
2018-03-30T07:12:21.793Z,87.16
2018-03-30T07:13:00.802Z,87.83
2018-03-30T07:14:00.774Z,86.88
2018-03-30T07:15:00.766Z,87.45
2018-03-30T07:16:00.763Z,86.88
2018-03-30T07:17:00.748Z,86.98
2018-03-30T07:18:21.825Z,86.22
2018-03-30T07:19:00.746Z,86.50
2018-03-30T07:20:00.730Z,86.12
2018-03-30T07:21:00.725Z,86.12
2018-03-30T07:22:00.713Z,86.16
2018-03-30T07:23:00.710Z,86.12
2018-03-30T07:24:21.699Z,86.22
2018-03-30T07:25:00.685Z,85.97
2018-03-30T07:26:00.678Z,86.55
2018-03-30T07:27:00.666Z,86.31
2018-03-30T07:28:00.667Z,86.41
2018-03-30T07:29:00.655Z,86.07
2018-03-30T07:30:21.650Z,86.07
2018-03-30T07:31:00.638Z,86.12
2018-03-30T07:32:00.647Z,86.35
2018-03-30T07:33:00.623Z,86.12
2018-03-30T07:34:00.615Z,86.31
2018-03-30T07:35:00.608Z,86.07
2018-03-30T07:36:21.606Z,86.26
2018-03-30T07:37:00.626Z,86.16
2018-03-30T07:38:00.586Z,86.55
2018-03-30T07:39:00.582Z,87.21
2018-03-30T07:40:00.570Z,87.40
2018-03-30T07:41:00.565Z,87.64
2018-03-30T07:42:21.568Z,86.98
2018-03-30T07:43:00.545Z,87.49
2018-03-30T07:44:00.534Z,87.40
2018-03-30T07:45:00.531Z,87.21
2018-03-30T07:46:00.523Z,87.68
2018-03-30T07:47:00.518Z,87.87
2018-03-30T07:48:21.636Z,88.16
2018-03-30T07:49:00.500Z,88.25
2018-03-30T07:50:00.585Z,88.54
2018-03-30T07:51:00.486Z,88.73
2018-03-30T07:52:00.476Z,88.54
2018-03-30T07:53:00.470Z,88.35
2018-03-30T07:54:21.469Z,87.77
2018-03-30T07:55:00.452Z,87.87
2018-03-30T07:56:00.443Z,87.87
2018-03-30T07:57:00.447Z,87.40
2018-03-30T07:58:00.431Z,87.87
2018-03-30T07:59:00.418Z,87.87
2018-03-30T08:00:21.418Z,87.21
2018-03-30T08:01:00.405Z,87.21
2018-03-30T08:02:00.408Z,86.64
2018-03-30T08:03:00.412Z,86.35
2018-03-30T08:04:00.381Z,86.40
2018-03-30T08:05:00.372Z,86.30
2018-03-30T08:06:21.390Z,86.11
2018-03-30T08:07:00.359Z,85.26
2018-03-30T08:08:00.375Z,85.64
2018-03-30T08:09:00.344Z,85.36
2018-03-30T08:10:00.338Z,85.45
2018-03-30T08:11:00.328Z,84.98
2018-03-30T08:12:21.328Z,84.03
2018-03-30T08:13:00.312Z,84.78
2018-03-30T08:14:00.307Z,84.59
2018-03-30T08:15:00.301Z,84.41
2018-03-30T08:16:00.299Z,83.78
2018-03-30T08:17:00.314Z,84.07
2018-03-30T08:18:21.315Z,83.78
2018-03-30T08:19:00.282Z,83.78
2018-03-30T08:20:00.279Z,83.88
2018-03-30T08:21:00.310Z,83.78
2018-03-30T08:22:00.250Z,83.40
2018-03-30T08:23:00.245Z,83.40
2018-03-30T08:24:21.246Z,83.50
2018-03-30T08:25:00.230Z,83.22
2018-03-30T08:26:00.236Z,82.93
2018-03-30T08:27:00.229Z,82.46
2018-03-30T08:28:00.213Z,82.08
2018-03-30T08:29:00.246Z,82.12
2018-03-30T08:30:21.208Z,82.03
2018-03-30T08:31:00.199Z,81.26
2018-03-30T08:32:00.189Z,80.32
2018-03-30T08:33:00.182Z,80.32
2018-03-30T08:34:00.177Z,79.27
2018-03-30T08:35:00.175Z,79.08
2018-03-30T08:36:21.167Z,78.89
2018-03-30T08:37:00.152Z,79.17
2018-03-30T08:38:00.152Z,78.89
2018-03-30T08:39:00.188Z,78.80
2018-03-30T08:40:00.142Z,78.80
2018-03-30T08:41:00.134Z,78.89
2018-03-30T08:42:21.140Z,78.42
2018-03-30T08:43:00.117Z,79.27
2018-03-30T08:44:00.128Z,79.27
2018-03-30T08:45:00.139Z,79.46
2018-03-30T08:46:00.117Z,79.55
2018-03-30T08:47:00.099Z,79.17
2018-03-30T08:48:21.114Z,79.36
2018-03-30T08:49:00.088Z,79.94
2018-03-30T08:50:00.093Z,79.74
2018-03-30T08:51:00.074Z,79.50
2018-03-30T08:52:00.067Z,79.65
2018-03-30T08:53:00.100Z,79.22
2018-03-30T08:54:21.068Z,79.50
2018-03-30T08:55:00.054Z,79.50
2018-03-30T08:56:00.045Z,79.31
2018-03-30T08:57:00.058Z,79.12
2018-03-30T08:58:00.069Z,79.12
2018-03-30T08:59:00.039Z,78.93
2018-03-30T09:00:21.035Z,78.55
2018-03-30T09:01:00.027Z,78.17
2018-03-30T09:02:00.024Z,78.45
2018-03-30T09:03:00.014Z,78.64
2018-03-30T09:04:00.014Z,78.17
2018-03-30T09:05:00.003Z,78.55
2018-03-30T09:06:21.003Z,78.30
2018-03-30T09:06:59.995Z,78.08
2018-03-30T09:08:00.073Z,77.83
2018-03-30T09:08:59.976Z,77.45
2018-03-30T09:09:59.976Z,77.26
2018-03-30T09:10:59.970Z,76.40
2018-03-30T09:12:20.969Z,75.93
2018-03-30T09:12:59.961Z,75.26
2018-03-30T09:13:59.980Z,75.36
2018-03-30T09:14:59.959Z,75.17
2018-03-30T09:15:59.942Z,75.64
2018-03-30T09:16:59.940Z,75.07
2018-03-30T09:18:21.015Z,76.16
2018-03-30T09:18:59.940Z,75.96
2018-03-30T09:19:59.922Z,76.06
2018-03-30T09:20:59.930Z,76.25
2018-03-30T09:21:59.928Z,75.49
2018-03-30T09:22:59.910Z,75.78
2018-03-30T09:24:20.922Z,75.49
2018-03-30T09:24:59.903Z,75.21
2018-03-30T09:25:59.896Z,75.02
2018-03-30T09:26:59.895Z,75.40
2018-03-30T09:27:59.894Z,75.02
2018-03-30T09:28:59.888Z,75.30
2018-03-30T09:30:20.888Z,74.96
2018-03-30T09:30:59.876Z,74.48
2018-03-30T09:31:59.867Z,74.87
2018-03-30T09:32:59.867Z,74.96
2018-03-30T09:33:59.876Z,74.48
2018-03-30T09:34:59.858Z,74.10
2018-03-30T09:36:20.874Z,74.39
2018-03-30T09:36:59.847Z,74.29
2018-03-30T09:37:59.950Z,74.39
2018-03-30T09:38:59.845Z,74.29
2018-03-30T09:39:59.838Z,74.33
2018-03-30T09:40:59.834Z,74.80
2018-03-30T09:42:20.840Z,74.04
2018-03-30T09:42:59.829Z,73.95
2018-03-30T09:43:59.825Z,73.28
2018-03-30T09:44:59.828Z,73.47
2018-03-30T09:45:59.831Z,73.28
2018-03-30T09:46:59.819Z,73.66
2018-03-30T09:48:20.913Z,73.57
2018-03-30T09:48:59.819Z,73.38
2018-03-30T09:49:59.856Z,73.85
2018-03-30T09:50:59.802Z,73.38
2018-03-30T09:51:59.794Z,73.00
2018-03-30T09:52:59.796Z,73.00
2018-03-30T09:54:20.796Z,73.19
2018-03-30T09:54:59.791Z,73.10
2018-03-30T09:55:59.794Z,73.19
2018-03-30T09:56:59.782Z,73.19
2018-03-30T09:57:59.779Z,74.04
2018-03-30T09:58:59.773Z,73.66
2018-03-30T10:00:20.784Z,74.14
2018-03-30T10:00:59.783Z,74.43
2018-03-30T10:01:59.764Z,74.33
2018-03-30T10:02:59.763Z,73.95
2018-03-30T10:03:59.754Z,74.24
2018-03-30T10:04:59.753Z,74.04
2018-03-30T10:06:20.756Z,73.85
2018-03-30T10:06:59.753Z,73.85
2018-03-30T10:07:59.843Z,73.95
2018-03-30T10:08:59.763Z,73.95
2018-03-30T10:09:59.742Z,73.38
2018-03-30T10:10:59.750Z,73.80
2018-03-30T10:12:20.745Z,73.70
2018-03-30T10:12:59.729Z,73.80
2018-03-30T10:13:59.774Z,73.51
2018-03-30T10:15:00.142Z,73.41
2018-03-30T10:15:59.794Z,73.80
2018-03-30T10:16:59.720Z,73.99
2018-03-30T10:18:20.805Z,74.18
2018-03-30T10:18:59.712Z,73.99
2018-03-30T10:19:59.709Z,73.70
2018-03-30T10:20:59.704Z,73.99
2018-03-30T10:21:59.702Z,73.89
2018-03-30T10:22:59.698Z,73.89
2018-03-30T10:24:20.704Z,73.80
2018-03-30T10:24:59.691Z,73.80
2018-03-30T10:25:59.696Z,73.32
2018-03-30T10:26:59.701Z,73.03
2018-03-30T10:27:59.683Z,73.32
2018-03-30T10:28:59.681Z,73.22
2018-03-30T10:30:20.709Z,73.36
2018-03-30T10:30:59.682Z,73.65
2018-03-30T10:31:59.675Z,72.97
2018-03-30T10:32:59.671Z,72.97
2018-03-30T10:33:59.681Z,73.07
2018-03-30T10:34:59.669Z,72.78
2018-03-30T10:36:20.670Z,72.21
2018-03-30T10:36:59.660Z,72.21
2018-03-30T10:37:59.658Z,70.97
2018-03-30T10:38:59.654Z,70.88
2018-03-30T10:39:59.653Z,70.59
2018-03-30T10:40:59.651Z,71.26
2018-03-30T10:42:20.658Z,70.97
2018-03-30T10:42:59.654Z,71.17
2018-03-30T10:43:59.648Z,71.20
2018-03-30T10:44:59.640Z,71.20
2018-03-30T10:45:59.639Z,71.01
2018-03-30T10:46:59.649Z,70.63
2018-03-30T10:48:20.694Z,71.20
2018-03-30T10:48:59.643Z,70.92
2018-03-30T10:49:59.628Z,70.63
2018-03-30T10:50:59.628Z,70.44
2018-03-30T10:51:59.626Z,70.44
2018-03-30T10:52:59.624Z,69.68
2018-03-30T10:54:20.626Z,69.39
2018-03-30T10:54:59.617Z,69.20
2018-03-30T10:55:59.615Z,68.95
2018-03-30T10:56:59.612Z,69.14
2018-03-30T10:57:59.619Z,69.52
2018-03-30T10:58:59.615Z,69.23
2018-03-30T11:00:20.630Z,68.85
2018-03-30T11:00:59.604Z,69.14
2018-03-30T11:01:59.602Z,68.47
2018-03-30T11:02:59.634Z,68.38
2018-03-30T11:03:59.602Z,67.90
2018-03-30T11:04:59.595Z,67.99
2018-03-30T11:06:20.625Z,67.90
2018-03-30T11:06:59.597Z,67.80
2018-03-30T11:07:59.597Z,67.42
2018-03-30T11:08:59.597Z,67.42
2018-03-30T11:09:59.595Z,67.27
2018-03-30T11:10:59.588Z,67.17
2018-03-30T11:12:20.597Z,66.78
2018-03-30T11:12:59.583Z,66.88
2018-03-30T11:13:59.586Z,66.88
2018-03-30T11:14:59.588Z,66.60
2018-03-30T11:15:59.585Z,66.78
2018-03-30T11:16:59.584Z,66.22
2018-03-30T11:18:20.699Z,66.12
2018-03-30T11:18:59.575Z,65.58
2018-03-30T11:19:59.576Z,65.20
2018-03-30T11:20:59.575Z,65.01
2018-03-30T11:21:59.582Z,64.62
2018-03-30T11:22:59.573Z,65.10
2018-03-30T11:24:20.589Z,64.81
2018-03-30T11:24:59.570Z,64.91
2018-03-30T11:25:59.571Z,64.15
2018-03-30T11:26:59.571Z,63.76
2018-03-30T11:27:59.586Z,63.32
2018-03-30T11:28:59.568Z,63.32
2018-03-30T11:30:20.588Z,62.62
2018-03-30T11:30:59.563Z,62.52
2018-03-30T11:31:59.564Z,62.43
2018-03-30T11:32:59.604Z,63.29
2018-03-30T11:33:59.576Z,63.29
2018-03-30T11:34:59.578Z,62.46
2018-03-30T11:36:20.573Z,62.37
2018-03-30T11:36:59.564Z,62.18
2018-03-30T11:37:59.566Z,61.79
2018-03-30T11:38:59.562Z,62.27
2018-03-30T11:39:59.559Z,60.93
2018-03-30T11:40:59.561Z,60.93
2018-03-30T11:42:20.593Z,60.64
2018-03-30T11:42:59.562Z,61.69
2018-03-30T11:43:59.563Z,60.77
2018-03-30T11:44:59.565Z,60.49
2018-03-30T11:45:59.557Z,60.49
2018-03-30T11:46:59.560Z,60.30
2018-03-30T11:48:20.597Z,60.58
2018-03-30T11:48:59.583Z,60.58
2018-03-30T11:49:59.557Z,59.63
2018-03-30T11:50:59.564Z,59.24
2018-03-30T11:51:59.561Z,58.48
2018-03-30T11:52:59.561Z,58.00
2018-03-30T11:54:20.577Z,57.33
2018-03-30T11:54:59.555Z,56.38
2018-03-30T11:55:59.613Z,55.71
2018-03-30T11:56:59.558Z,55.83
2018-03-30T11:57:59.560Z,55.54
2018-03-30T11:58:59.560Z,55.45
2018-03-30T12:00:20.564Z,55.45
2018-03-30T12:00:59.585Z,55.54
2018-03-30T12:01:59.564Z,55.64
2018-03-30T12:02:59.570Z,55.83
2018-03-30T12:03:59.559Z,55.74
2018-03-30T12:04:59.563Z,55.64
2018-03-30T12:06:20.571Z,55.16
2018-03-30T12:06:59.561Z,54.59
2018-03-30T12:07:59.634Z,54.59
2018-03-30T12:08:59.561Z,54.78
2018-03-30T12:09:59.562Z,54.68
2018-03-30T12:10:59.576Z,54.68
2018-03-30T12:12:20.571Z,55.07
2018-03-30T12:12:59.574Z,54.21
2018-03-30T12:13:59.571Z,54.39
2018-03-30T12:14:59.575Z,54.39
2018-03-30T12:15:59.573Z,54.49
2018-03-30T12:16:59.567Z,54.97
2018-03-30T12:18:20.592Z,54.88
2018-03-30T12:18:59.566Z,54.78
2018-03-30T12:19:59.564Z,54.97
2018-03-30T12:20:59.572Z,55.26
2018-03-30T12:21:59.572Z,54.59
2018-03-30T12:22:59.566Z,54.88
2018-03-30T12:24:20.576Z,54.68
2018-03-30T12:24:59.568Z,55.07
2018-03-30T12:25:59.576Z,54.78
2018-03-30T12:26:59.572Z,54.49
2018-03-30T12:27:59.584Z,54.68
2018-03-30T12:28:59.577Z,54.59
2018-03-30T12:30:20.580Z,54.49
2018-03-30T12:30:59.568Z,54.39
2018-03-30T12:31:59.566Z,54.49
2018-03-30T12:32:59.568Z,54.02
2018-03-30T12:33:59.571Z,53.25
2018-03-30T12:34:59.569Z,53.53
2018-03-30T12:36:20.576Z,53.16
2018-03-30T12:36:59.579Z,52.39
2018-03-30T12:37:59.572Z,52.77
2018-03-30T12:38:59.576Z,52.77
2018-03-30T12:39:59.574Z,52.29
2018-03-30T12:40:59.583Z,52.20
2018-03-30T12:42:20.602Z,51.81
2018-03-30T12:42:59.572Z,51.53
2018-03-30T12:43:59.582Z,51.62
2018-03-30T12:44:59.570Z,51.62
2018-03-30T12:45:59.577Z,51.34
2018-03-30T12:46:59.578Z,51.43
2018-03-30T12:48:20.597Z,51.34
2018-03-30T12:48:59.577Z,51.53
2018-03-30T12:49:59.590Z,51.34
2018-03-30T12:50:59.592Z,51.43
2018-03-30T12:51:59.574Z,51.72